sensor_id;sensor_type;location;lat;lon;timestamp;pressure;altitude;pressure_sealevel;temperature;humidity
19576;BME280;41589;51.196;7.074;2022-08-07T00:03:22;99965.69;;;17.44;45.23
19576;BME280;41589;51.196;7.074;2022-08-07T00:08:23;99957.84;;;17.54;44.99
19576;BME280;41589;51.196;7.074;2022-08-07T00:13:23;99955.59;;;17.58;45.14
19576;BME280;41589;51.196;7.074;2022-08-07T00:18:26;99955.22;;;17.65;44.86
19576;BME280;41589;51.196;7.074;2022-08-07T00:23:27;99951.88;;;17.67;44.67
19576;BME280;41589;51.196;7.074;2022-08-07T00:28:29;99936.22;;;17.47;45.02
19576;BME280;41589;51.196;7.074;2022-08-07T00:33:30;99937.22;;;17.59;44.67
19576;BME280;41589;51.196;7.074;2022-08-07T00:38:31;99935.56;;;17.67;44.46
19576;BME280;41589;51.196;7.074;2022-08-07T00:43:31;99938.13;;;17.50;44.48
19576;BME280;41589;51.196;7.074;2022-08-07T00:48:32;99924.88;;;17.62;44.35
19576;BME280;41589;51.196;7.074;2022-08-07T00:53:32;99929.09;;;17.67;44.29
19576;BME280;41589;51.196;7.074;2022-08-07T00:58:33;99914.00;;;17.60;44.35
19576;BME280;41589;51.196;7.074;2022-08-07T01:03:33;99917.81;;;17.57;44.39
19576;BME280;41589;51.196;7.074;2022-08-07T01:08:34;99917.63;;;17.61;44.27
19576;BME280;41589;51.196;7.074;2022-08-07T01:13:34;99905.03;;;17.53;44.38
19576;BME280;41589;51.196;7.074;2022-08-07T01:18:35;99906.50;;;17.48;44.53
19576;BME280;41589;51.196;7.074;2022-08-07T01:23:38;99908.31;;;17.60;44.72
19576;BME280;41589;51.196;7.074;2022-08-07T01:28:41;99897.19;;;17.48;44.61
19576;BME280;41589;51.196;7.074;2022-08-07T01:33:42;99914.75;;;17.46;44.89
19576;BME280;41589;51.196;7.074;2022-08-07T01:38:46;99902.00;;;17.27;45.21
19576;BME280;41589;51.196;7.074;2022-08-07T01:43:54;99892.78;;;17.32;45.02
19576;BME280;41589;51.196;7.074;2022-08-07T01:48:55;99893.78;;;17.29;45.34
19576;BME280;41589;51.196;7.074;2022-08-07T01:54:02;99897.19;;;17.33;45.35
19576;BME280;41589;51.196;7.074;2022-08-07T01:59:14;99895.25;;;17.39;45.37
19576;BME280;41589;51.196;7.074;2022-08-07T02:04:26;99896.81;;;17.40;45.48
19576;BME280;41589;51.196;7.074;2022-08-07T02:09:32;99892.97;;;17.43;45.33
19576;BME280;41589;51.196;7.074;2022-08-07T02:14:35;99891.47;;;17.48;45.22
19576;BME280;41589;51.196;7.074;2022-08-07T02:19:42;99897.97;;;17.48;45.22
19576;BME280;41589;51.196;7.074;2022-08-07T02:24:44;99885.44;;;17.40;45.26
19576;BME280;41589;51.196;7.074;2022-08-07T02:29:49;99875.31;;;17.39;45.45
19576;BME280;41589;51.196;7.074;2022-08-07T02:34:57;99878.47;;;17.41;44.99
19576;BME280;41589;51.196;7.074;2022-08-07T02:40:02;99881.00;;;17.39;44.92
19576;BME280;41589;51.196;7.074;2022-08-07T02:45:05;99875.44;;;17.30;45.16
19576;BME280;41589;51.196;7.074;2022-08-07T02:50:08;99884.03;;;17.36;45.31
19576;BME280;41589;51.196;7.074;2022-08-07T02:55:18;99874.44;;;17.33;45.23
19576;BME280;41589;51.196;7.074;2022-08-07T03:00:19;99869.03;;;17.35;45.33
19576;BME280;41589;51.196;7.074;2022-08-07T03:05:23;99885.31;;;17.35;45.30
19576;BME280;41589;51.196;7.074;2022-08-07T03:10:27;99867.84;;;17.42;45.08
19576;BME280;41589;51.196;7.074;2022-08-07T03:15:29;99879.72;;;17.40;45.06
19576;BME280;41589;51.196;7.074;2022-08-07T03:20:34;99870.88;;;17.38;44.91
19576;BME280;41589;51.196;7.074;2022-08-07T03:25:41;99870.41;;;17.40;44.98
19576;BME280;41589;51.196;7.074;2022-08-07T03:30:46;99863.06;;;17.33;44.89
19576;BME280;41589;51.196;7.074;2022-08-07T03:35:50;99872.16;;;17.37;44.70
19576;BME280;41589;51.196;7.074;2022-08-07T03:40:53;99875.50;;;17.36;44.75
19576;BME280;41589;51.196;7.074;2022-08-07T03:45:55;99872.56;;;17.30;44.45
19576;BME280;41589;51.196;7.074;2022-08-07T03:51:00;99865.00;;;17.27;44.54
19576;BME280;41589;51.196;7.074;2022-08-07T03:56:09;99867.84;;;17.27;44.31
19576;BME280;41589;51.196;7.074;2022-08-07T04:01:14;99857.38;;;17.18;44.46
19576;BME280;41589;51.196;7.074;2022-08-07T04:06:18;99861.28;;;17.21;44.23
19576;BME280;41589;51.196;7.074;2022-08-07T04:11:20;99865.22;;;17.23;43.95
19576;BME280;41589;51.196;7.074;2022-08-07T04:16:21;99864.31;;;17.17;43.95
19576;BME280;41589;51.196;7.074;2022-08-07T04:21:21;99871.59;;;17.18;44.14
19576;BME280;41589;51.196;7.074;2022-08-07T04:26:22;99855.91;;;17.23;43.55
19576;BME280;41589;51.196;7.074;2022-08-07T04:31:24;99863.38;;;17.20;43.30
19576;BME280;41589;51.196;7.074;2022-08-07T04:36:25;99862.66;;;17.25;43.38
19576;BME280;41589;51.196;7.074;2022-08-07T04:41:26;99872.28;;;17.28;42.95
19576;BME280;41589;51.196;7.074;2022-08-07T04:51:50;99883.25;;;17.35;42.69
19576;BME280;41589;51.196;7.074;2022-08-07T05:02:27;99871.97;;;17.55;42.47
19576;BME280;41589;51.196;7.074;2022-08-07T05:07:41;99869.81;;;17.65;41.83
19576;BME280;41589;51.196;7.074;2022-08-07T05:12:51;99873.09;;;17.78;41.84
19576;BME280;41589;51.196;7.074;2022-08-07T05:17:56;99888.75;;;18.03;41.42
19576;BME280;41589;51.196;7.074;2022-08-07T05:23:04;99888.41;;;18.16;41.09
19576;BME280;41589;51.196;7.074;2022-08-07T05:28:07;99886.22;;;18.26;40.73
19576;BME280;41589;51.196;7.074;2022-08-07T05:33:12;99885.47;;;18.45;40.44
19576;BME280;41589;51.196;7.074;2022-08-07T05:38:13;99887.44;;;18.60;40.60
19576;BME280;41589;51.196;7.074;2022-08-07T05:43:15;99885.56;;;18.77;40.09
19576;BME280;41589;51.196;7.074;2022-08-07T05:48:18;99897.16;;;18.94;40.16
19576;BME280;41589;51.196;7.074;2022-08-07T05:53:20;99897.41;;;19.16;39.57
19576;BME280;41589;51.196;7.074;2022-08-07T05:58:23;99903.56;;;19.35;39.33
19576;BME280;41589;51.196;7.074;2022-08-07T06:03:25;99893.84;;;19.53;39.15
19576;BME280;41589;51.196;7.074;2022-08-07T06:08:27;99888.31;;;19.75;39.42
19576;BME280;41589;51.196;7.074;2022-08-07T06:13:28;99899.50;;;20.10;38.39
19576;BME280;41589;51.196;7.074;2022-08-07T06:18:30;99903.03;;;20.42;37.59
19576;BME280;41589;51.196;7.074;2022-08-07T06:23:31;99908.59;;;20.63;37.09
19576;BME280;41589;51.196;7.074;2022-08-07T06:28:32;99906.13;;;20.98;37.17
19576;BME280;41589;51.196;7.074;2022-08-07T06:33:33;99901.50;;;21.35;37.45
19576;BME280;41589;51.196;7.074;2022-08-07T06:38:33;99903.06;;;21.58;36.54
19576;BME280;41589;51.196;7.074;2022-08-07T06:43:35;99896.56;;;21.74;36.19
19576;BME280;41589;51.196;7.074;2022-08-07T06:48:44;99900.19;;;22.08;36.18
19576;BME280;41589;51.196;7.074;2022-08-07T06:53:47;99896.53;;;22.02;35.50
19576;BME280;41589;51.196;7.074;2022-08-07T06:58:51;99887.09;;;22.24;35.46
19576;BME280;41589;51.196;7.074;2022-08-07T07:03:55;99893.38;;;22.28;34.25
19576;BME280;41589;51.196;7.074;2022-08-07T07:09:19;99885.81;;;22.19;33.76
19576;BME280;41589;51.196;7.074;2022-08-07T07:14:25;99886.09;;;22.10;34.82
19576;BME280;41589;51.196;7.074;2022-08-07T07:19:34;99888.66;;;22.36;34.47
19576;BME280;41589;51.196;7.074;2022-08-07T07:24:37;99886.31;;;22.40;33.57
19576;BME280;41589;51.196;7.074;2022-08-07T07:29:42;99890.38;;;22.62;33.92
19576;BME280;41589;51.196;7.074;2022-08-07T07:34:51;99895.78;;;22.82;32.89
19576;BME280;41589;51.196;7.074;2022-08-07T07:39:56;99892.53;;;22.97;33.37
19576;BME280;41589;51.196;7.074;2022-08-07T07:44:59;99883.34;;;23.10;33.06
19576;BME280;41589;51.196;7.074;2022-08-07T07:50:02;99884.00;;;23.32;32.98
19576;BME280;41589;51.196;7.074;2022-08-07T07:55:04;99882.97;;;23.60;31.71
19576;BME280;41589;51.196;7.074;2022-08-07T08:00:07;99876.50;;;23.54;30.38
19576;BME280;41589;51.196;7.074;2022-08-07T08:05:12;99877.13;;;23.41;30.90
19576;BME280;41589;51.196;7.074;2022-08-07T08:10:15;99869.09;;;23.64;30.49
19576;BME280;41589;51.196;7.074;2022-08-07T08:15:17;99862.31;;;23.92;30.31
19576;BME280;41589;51.196;7.074;2022-08-07T08:20:18;99858.19;;;23.87;29.98
19576;BME280;41589;51.196;7.074;2022-08-07T08:25:19;99866.88;;;24.30;29.93
19576;BME280;41589;51.196;7.074;2022-08-07T08:30:38;99859.91;;;24.44;29.49
19576;BME280;41589;51.196;7.074;2022-08-07T08:35:39;99855.81;;;24.77;28.67
19576;BME280;41589;51.196;7.074;2022-08-07T08:40:44;99853.84;;;24.67;29.09
19576;BME280;41589;51.196;7.074;2022-08-07T08:51:10;99857.91;;;24.39;27.50
19576;BME280;41589;51.196;7.074;2022-08-07T08:56:26;99851.84;;;24.18;27.68
19576;BME280;41589;51.196;7.074;2022-08-07T09:02:05;99839.78;;;24.82;28.23
19576;BME280;41589;51.196;7.074;2022-08-07T09:07:15;99843.94;;;24.68;27.34
19576;BME280;41589;51.196;7.074;2022-08-07T09:12:36;99827.97;;;25.04;28.53
19576;BME280;41589;51.196;7.074;2022-08-07T09:28:26;99829.47;;;26.28;25.92
19576;BME280;41589;51.196;7.074;2022-08-07T09:39:02;99825.09;;;26.22;25.47
19576;BME280;41589;51.196;7.074;2022-08-07T09:49:53;99823.97;;;26.51;24.53
19576;BME280;41589;51.196;7.074;2022-08-07T10:00:20;99825.22;;;25.89;24.00
19576;BME280;41589;51.196;7.074;2022-08-07T10:10:46;99805.72;;;26.35;24.00
19576;BME280;41589;51.196;7.074;2022-08-07T10:15:59;99800.53;;;26.55;24.61
19576;BME280;41589;51.196;7.074;2022-08-07T10:21:17;99788.56;;;27.40;24.68
19576;BME280;41589;51.196;7.074;2022-08-07T10:37:04;99785.66;;;27.89;23.56
19576;BME280;41589;51.196;7.074;2022-08-07T10:42:27;99774.41;;;27.78;23.00
19576;BME280;41589;51.196;7.074;2022-08-07T10:48:02;99779.19;;;27.05;23.33
19576;BME280;41589;51.196;7.074;2022-08-07T10:58:56;99761.47;;;26.54;23.81
19576;BME280;41589;51.196;7.074;2022-08-07T11:09:32;99737.22;;;26.70;23.61
19576;BME280;41589;51.196;7.074;2022-08-07T11:14:40;99750.94;;;26.56;23.94
19576;BME280;41589;51.196;7.074;2022-08-07T11:19:55;99740.09;;;26.23;24.44
19576;BME280;41589;51.196;7.074;2022-08-07T11:30:05;99737.66;;;26.27;24.78
19576;BME280;41589;51.196;7.074;2022-08-07T11:35:27;99722.16;;;26.16;25.56
19576;BME280;41589;51.196;7.074;2022-08-07T11:40:50;99720.59;;;26.15;25.19
19576;BME280;41589;51.196;7.074;2022-08-07T12:06:49;99710.88;;;25.79;26.29
19576;BME280;41589;51.196;7.074;2022-08-07T12:12:05;99721.41;;;25.63;25.15
19576;BME280;41589;51.196;7.074;2022-08-07T12:17:10;99728.59;;;25.70;25.33
19576;BME280;41589;51.196;7.074;2022-08-07T12:22:21;99711.28;;;25.43;25.46
19576;BME280;41589;51.196;7.074;2022-08-07T12:27:23;99711.25;;;25.30;25.41
19576;BME280;41589;51.196;7.074;2022-08-07T12:33:03;99705.63;;;25.38;26.22
19576;BME280;41589;51.196;7.074;2022-08-07T12:38:06;99692.66;;;25.57;25.11
19576;BME280;41589;51.196;7.074;2022-08-07T12:43:09;99700.31;;;25.55;25.79
19576;BME280;41589;51.196;7.074;2022-08-07T12:48:15;99686.47;;;25.53;25.72
19576;BME280;41589;51.196;7.074;2022-08-07T12:53:21;99681.59;;;25.48;25.55
19576;BME280;41589;51.196;7.074;2022-08-07T12:58:24;99679.72;;;25.64;25.28
19576;BME280;41589;51.196;7.074;2022-08-07T13:19:59;99667.41;;;25.77;24.14
19576;BME280;41589;51.196;7.074;2022-08-07T13:25:23;99670.41;;;25.45;25.15
19576;BME280;41589;51.196;7.074;2022-08-07T13:30:26;99660.75;;;25.69;24.41
19576;BME280;41589;51.196;7.074;2022-08-07T13:46:06;99647.03;;;26.09;24.27
19576;BME280;41589;51.196;7.074;2022-08-07T13:51:08;99643.22;;;25.93;23.92
19576;BME280;41589;51.196;7.074;2022-08-07T13:56:08;99641.19;;;26.01;24.76
19576;BME280;41589;51.196;7.074;2022-08-07T14:01:16;99638.31;;;26.01;24.66
19576;BME280;41589;51.196;7.074;2022-08-07T14:06:19;99625.78;;;25.99;25.06
19576;BME280;41589;51.196;7.074;2022-08-07T14:11:21;99623.31;;;26.03;25.19
19576;BME280;41589;51.196;7.074;2022-08-07T14:16:28;99629.38;;;26.12;24.62
19576;BME280;41589;51.196;7.074;2022-08-07T14:21:39;99627.06;;;26.11;25.05
19576;BME280;41589;51.196;7.074;2022-08-07T14:26:43;99630.53;;;26.09;24.18
19576;BME280;41589;51.196;7.074;2022-08-07T14:31:48;99622.34;;;26.00;24.56
19576;BME280;41589;51.196;7.074;2022-08-07T14:36:49;99617.69;;;25.97;24.79
19576;BME280;41589;51.196;7.074;2022-08-07T14:41:51;99610.03;;;26.00;24.64
19576;BME280;41589;51.196;7.074;2022-08-07T14:46:54;99597.13;;;26.14;24.67
19576;BME280;41589;51.196;7.074;2022-08-07T14:51:57;99608.31;;;26.17;24.51
19576;BME280;41589;51.196;7.074;2022-08-07T14:57:00;99601.41;;;26.21;24.48
19576;BME280;41589;51.196;7.074;2022-08-07T15:07:17;99599.63;;;25.97;24.34
19576;BME280;41589;51.196;7.074;2022-08-07T15:12:21;99598.13;;;26.03;24.66
19576;BME280;41589;51.196;7.074;2022-08-07T15:17:29;99604.75;;;25.77;24.00
19576;BME280;41589;51.196;7.074;2022-08-07T15:22:43;99609.63;;;25.82;24.42
19576;BME280;41589;51.196;7.074;2022-08-07T15:27:48;99603.47;;;25.65;24.54
19576;BME280;41589;51.196;7.074;2022-08-07T15:32:51;99601.53;;;25.81;24.13
19576;BME280;41589;51.196;7.074;2022-08-07T15:37:54;99594.72;;;25.92;23.77
19576;BME280;41589;51.196;7.074;2022-08-07T15:43:22;99595.75;;;25.94;23.41
19576;BME280;41589;51.196;7.074;2022-08-07T15:48:28;99593.03;;;25.49;23.93
19576;BME280;41589;51.196;7.074;2022-08-07T15:53:37;99593.81;;;25.49;23.91
19576;BME280;41589;51.196;7.074;2022-08-07T16:03:48;99581.88;;;25.32;23.27
19576;BME280;41589;51.196;7.074;2022-08-07T16:08:50;99577.19;;;24.89;24.01
19576;BME280;41589;51.196;7.074;2022-08-07T16:14:06;99586.44;;;24.69;24.07
19576;BME280;41589;51.196;7.074;2022-08-07T16:19:43;99577.44;;;25.04;24.29
19576;BME280;41589;51.196;7.074;2022-08-07T16:24:52;99568.09;;;25.38;24.02
19576;BME280;41589;51.196;7.074;2022-08-07T16:45:54;99574.75;;;25.07;23.95
19576;BME280;41589;51.196;7.074;2022-08-07T16:51:29;99571.22;;;25.14;23.34
19576;BME280;41589;51.196;7.074;2022-08-07T17:02:04;99568.56;;;25.02;23.27
19576;BME280;41589;51.196;7.074;2022-08-07T17:07:27;99567.31;;;24.71;23.54
19576;BME280;41589;51.196;7.074;2022-08-07T17:12:42;99568.63;;;24.70;23.90
19576;BME280;41589;51.196;7.074;2022-08-07T17:28:12;99570.88;;;24.91;24.30
19576;BME280;41589;51.196;7.074;2022-08-07T17:33:18;99565.75;;;24.84;24.36
19576;BME280;41589;51.196;7.074;2022-08-07T17:44:09;99567.16;;;24.64;25.14
19576;BME280;41589;51.196;7.074;2022-08-07T17:49:32;99572.47;;;24.60;25.20
19576;BME280;41589;51.196;7.074;2022-08-07T17:54:47;99558.44;;;24.69;25.54
19576;BME280;41589;51.196;7.074;2022-08-07T18:00:18;99557.19;;;24.52;25.49
19576;BME280;41589;51.196;7.074;2022-08-07T18:05:29;99562.72;;;24.50;25.52
19576;BME280;41589;51.196;7.074;2022-08-07T18:10:42;99573.69;;;24.32;25.83
19576;BME280;41589;51.196;7.074;2022-08-07T18:21:09;99571.34;;;24.17;26.25
19576;BME280;41589;51.196;7.074;2022-08-07T18:26:13;99578.72;;;24.13;26.49
19576;BME280;41589;51.196;7.074;2022-08-07T18:31:17;99569.19;;;26.71;25.34
19576;BME280;41589;51.196;7.074;2022-08-07T18:36:57;99570.94;;;26.95;23.72
19576;BME280;41589;51.196;7.074;2022-08-07T18:42:42;99583.06;;;25.37;24.66
19576;BME280;41589;51.196;7.074;2022-08-07T18:47:53;99590.06;;;24.56;26.17
19576;BME280;41589;51.196;7.074;2022-08-07T18:53:07;99589.28;;;24.05;27.63
19576;BME280;41589;51.196;7.074;2022-08-07T18:58:22;99598.78;;;23.81;27.68
19576;BME280;41589;51.196;7.074;2022-08-07T19:03:30;99607.50;;;23.51;28.26
19576;BME280;41589;51.196;7.074;2022-08-07T19:14:05;99613.38;;;23.64;28.87
19576;BME280;41589;51.196;7.074;2022-08-07T19:19:17;99620.56;;;23.52;29.57
19576;BME280;41589;51.196;7.074;2022-08-07T19:24:28;99628.25;;;23.19;29.84
19576;BME280;41589;51.196;7.074;2022-08-07T19:29:39;99632.97;;;22.92;31.05
19576;BME280;41589;51.196;7.074;2022-08-07T19:34:53;99645.84;;;22.80;31.52
19576;BME280;41589;51.196;7.074;2022-08-07T19:40:02;99652.81;;;22.60;31.51
19576;BME280;41589;51.196;7.074;2022-08-07T19:45:05;99643.16;;;22.22;32.06
19576;BME280;41589;51.196;7.074;2022-08-07T19:50:08;99653.13;;;22.10;32.60
19576;BME280;41589;51.196;7.074;2022-08-07T19:55:09;99661.59;;;21.85;32.80
19576;BME280;41589;51.196;7.074;2022-08-07T20:00:17;99655.91;;;21.80;32.90
19576;BME280;41589;51.196;7.074;2022-08-07T20:05:20;99661.44;;;21.67;33.20
19576;BME280;41589;51.196;7.074;2022-08-07T20:10:28;99660.06;;;21.79;33.20
19576;BME280;41589;51.196;7.074;2022-08-07T20:15:31;99671.53;;;21.73;33.41
19576;BME280;41589;51.196;7.074;2022-08-07T20:20:33;99673.69;;;21.67;33.29
19576;BME280;41589;51.196;7.074;2022-08-07T20:25:37;99666.41;;;21.49;34.20
19576;BME280;41589;51.196;7.074;2022-08-07T20:30:41;99663.34;;;21.30;34.13
19576;BME280;41589;51.196;7.074;2022-08-07T20:35:47;99667.00;;;21.20;34.79
19576;BME280;41589;51.196;7.074;2022-08-07T20:40:51;99675.06;;;21.21;34.53
19576;BME280;41589;51.196;7.074;2022-08-07T20:45:54;99672.25;;;21.04;35.30
19576;BME280;41589;51.196;7.074;2022-08-07T20:50:58;99676.16;;;21.07;35.20
19576;BME280;41589;51.196;7.074;2022-08-07T20:56:00;99676.66;;;21.17;35.25
19576;BME280;41589;51.196;7.074;2022-08-07T21:01:12;99682.66;;;21.08;35.53
19576;BME280;41589;51.196;7.074;2022-08-07T21:06:16;99686.56;;;21.04;35.46
19576;BME280;41589;51.196;7.074;2022-08-07T21:11:19;99677.94;;;20.82;36.24
19576;BME280;41589;51.196;7.074;2022-08-07T21:17:04;99676.66;;;20.77;36.11
19576;BME280;41589;51.196;7.074;2022-08-07T21:22:06;99679.28;;;20.92;35.98
19576;BME280;41589;51.196;7.074;2022-08-07T21:32:30;99680.03;;;20.76;36.47
19576;BME280;41589;51.196;7.074;2022-08-07T21:37:37;99686.28;;;20.58;37.01
19576;BME280;41589;51.196;7.074;2022-08-07T21:42:55;99683.94;;;20.67;36.67
19576;BME280;41589;51.196;7.074;2022-08-07T21:53:30;99683.91;;;20.51;37.27
19576;BME280;41589;51.196;7.074;2022-08-07T21:58:41;99690.69;;;20.59;37.01
19576;BME280;41589;51.196;7.074;2022-08-07T22:03:51;99708.63;;;20.48;37.50
19576;BME280;41589;51.196;7.074;2022-08-07T22:08:55;99704.44;;;20.21;38.23
19576;BME280;41589;51.196;7.074;2022-08-07T22:13:57;99699.75;;;20.40;37.81
19576;BME280;41589;51.196;7.074;2022-08-07T22:19:06;99701.03;;;20.23;37.98
19576;BME280;41589;51.196;7.074;2022-08-07T22:24:32;99698.69;;;20.15;38.35
19576;BME280;41589;51.196;7.074;2022-08-07T22:29:42;99695.50;;;20.02;38.65
19576;BME280;41589;51.196;7.074;2022-08-07T22:34:54;99692.91;;;20.04;38.61
19576;BME280;41589;51.196;7.074;2022-08-07T22:40:02;99692.97;;;20.10;38.88
19576;BME280;41589;51.196;7.074;2022-08-07T22:45:07;99704.63;;;20.06;38.84
19576;BME280;41589;51.196;7.074;2022-08-07T23:06:05;99701.38;;;19.76;39.83
19576;BME280;41589;51.196;7.074;2022-08-07T23:22:16;99701.25;;;19.48;40.61
19576;BME280;41589;51.196;7.074;2022-08-07T23:27:51;99708.69;;;19.35;40.86
19576;BME280;41589;51.196;7.074;2022-08-07T23:33:38;99703.75;;;19.29;41.19
19576;BME280;41589;51.196;7.074;2022-08-07T23:39:06;99714.97;;;19.07;41.75
